• Join FlightAware (Why Join?)
  • Login
  • US Flag 
10:40AM EDT


 

Airport Tracker/Info


-or-


 

Live Flight TrackerFlight Track Log ✈ JBU24 ✈ 15-May-2013 ✈ KJFK - KSYR

Flight Track Log - Related Links

Times and Time Zones

All times are in EDT time to prevent confusion due to time zone crossing. See the JBU24 flight status page for this flight to view local times or setup timezone preferences in your user account.

Time Position Orientation Groundspeed Altitude Reporting Facility
EDT Latitude Longitude Course Direction KTS MPH feet Rate Location/Type
06:29PM 40.6333 -73.6667 323° Northwest 243 280 3,400  Level New York TRACON
06:30PM 40.6667 -73.5833 62° Northeast 299 344 5,600 2,820 Climbing New York TRACON
06:31PM 40.8535 -74.0719 311° West  Level FlightAware Approximate
06:31PM 40.7167 -73.4833 57° Northeast 316 364 8,800  Level New York TRACON
06:32PM 40.9067 -74.1516 311° West  Level FlightAware Approximate
06:32PM 40.8000 -73.4667 North 292 336 11,700  Level New York TRACON
06:33PM 40.9635 -74.2268 316° Northwest  Level FlightAware Approximate
06:33PM 40.8833 -73.4500 North 316 364 13,500  Level New York TRACON
06:34PM 41.0211 -74.3009 316° Northwest  Level FlightAware Approximate
06:34PM 40.9333 -73.5333 308° West 341 392 15,100  Level New York TRACON
06:35PM 41.0765 -74.3765 323° Northwest  Level FlightAware Approximate
06:37PM 41.0083 -73.7958 291° West 374 430 17,000  Level New York Center
06:38PM 41.0494 -73.8967 298° West 355 409 18,600 1,800 Climbing New York Center
06:39PM 41.1150 -74.0181 306° West 360 414 20,700 1,680 Climbing New York Center
06:40PM 41.1742 -74.1339 304° West 370 426 22,000 600 Climbing New York Center
06:41PM 41.2350 -74.2611 302° West 377 434 22,000  Level New York Center
06:42PM 41.2942 -74.3747 305° West 382 440 22,000  Level New York Center
06:43PM 41.3511 -74.4828 305° West 387 445 22,000  Level New York Center
06:44PM 41.4136 -74.6133 303° West 379 436 22,000  Level New York Center
06:46PM 41.5306 -74.8472 304° West 379 436 22,000  Level New York Center
06:47PM 41.5889 -74.9672 303° West 379 436 22,000  Level New York Center
06:48PM 41.6472 -75.0847 304° West 379 436 22,000  Level New York Center
06:49PM 41.7053 -75.2025 303° West 379 436 22,000  Level New York Center
06:50PM 41.7614 -75.3175 303° West 379 436 22,000  Level New York Center
06:51PM 41.8192 -75.4356 303° West 379 436 22,000  Level New York Center
06:52PM 41.8772 -75.5508 304° West 379 436 22,000 -240 Level New York Center
06:53PM 41.9306 -75.6692 301° West 379 436 21,600 -960 Descending New York Center
06:54PM 41.9842 -75.7792 303° West 373 429 20,100 -1,560 Descending New York Center
06:55PM 42.0303 -75.8747 303° West 356 410 18,600 -1,620 Descending New York Center
06:56PM 42.0858 -75.9853 304° West 338 389 17,000 -840 Descending New York Center
06:57PM 42.1353 -76.0869 303° West 333 383 17,000 -1,140 Level New York Center
06:58PM 42.2164 -76.1356 336° Northwest 310 357 14,800 -2,520 Descending New York Center
06:59PM 42.3150 -76.1211 North 321 369 12,100 -1,800 Descending New York Center
07:00PM 42.4308 -76.1086 North 350 403 11,000 -540 Descending Boston Center
07:01PM 42.5228 -76.0969 North 341 392 11,000 -360 Level Boston Center
07:02PM 42.6217 -76.0747 North 319 367 10,300 -1,320 Descending Boston Center
07:03PM 42.6994 -76.0511 13° North 275 316 8,400 -1,920 Descending Boston Center
07:04PM 42.7731 -76.0269 14° North 272 313 6,500 -2,040 Descending Boston Center
07:05PM 42.8469 -76.0058 12° North 270 311 4,400 -1,500 Descending Boston Center
07:06PM 42.9203 -75.9872 11° North 266 306 3,500 -720 Descending Boston Center
07:07PM 42.9869 -75.9939 356° North 241 277 3,000 -600 Descending Boston Center
07:08PM 43.0428 -76.0058 351° North 185 213 2,300 -780 Descending Boston Center
07:09PM 43.0689 -76.0414 315° West 118 136 1,500 -840 Descending Boston Center
07:10PM 43.0967 -76.0858 311° West 129 148 700 -840 Descending Boston Center